Time;durP1;ratioP1;P1;durP2;ratioP2;P2;SDS_P1;SDS_P2;PMS_P1;PMS_P2;Temp;Humidity;BMP_temperature;BMP_pressure;BME280_temperature;BME280_humidity;BME280_pressure;Samples;Min_cycle;Max_cycle;Signal;HPM_P1;HPM_P2
2022/07/18 00:02:03;;;;;;;1999.90;999.90;;;;;;;17.82;100.00;96062.25;4994286;28;20195;-62
2022/07/18 00:04:29;;;;;;;1999.90;999.90;;;;;;;17.75;100.00;96056.91;5011186;28;20198;-64
2022/07/18 00:06:55;;;;;;;1999.90;999.90;;;;;;;17.79;100.00;96056.78;5010797;28;20215;-62
2022/07/18 00:09:22;;;;;;;1999.90;999.90;;;;;;;17.76;100.00;96060.41;5010545;28;20219;-62
2022/07/18 00:11:48;;;;;;;1999.90;999.90;;;;;;;17.83;100.00;96065.75;5010455;28;20199;-62
2022/07/18 00:14:14;;;;;;;1999.90;999.90;;;;;;;17.82;100.00;96055.94;5009605;28;20209;-63
2022/07/18 00:16:39;;;;;;;1999.90;999.90;;;;;;;17.77;100.00;96050.94;5010672;28;20188;-61
2022/07/18 00:19:05;;;;;;;1999.90;999.90;;;;;;;17.73;100.00;96061.28;5010394;28;20191;-62
2022/07/18 00:21:31;;;;;;;1999.90;999.90;;;;;;;17.62;100.00;96063.53;5011044;28;20219;-61
2022/07/18 00:23:57;;;;;;;1999.90;999.90;;;;;;;17.62;100.00;96069.06;5010416;28;20195;-62
2022/07/18 00:26:22;;;;;;;1999.90;999.90;;;;;;;17.61;100.00;96061.97;5010513;28;20215;-62
2022/07/18 00:28:48;;;;;;;1999.90;999.90;;;;;;;17.60;100.00;96061.22;5010957;28;20266;-62
2022/07/18 00:31:13;;;;;;;1999.90;999.90;;;;;;;17.60;100.00;96057.69;5010504;28;20198;-62
2022/07/18 00:33:38;;;;;;;1999.90;999.90;;;;;;;17.60;100.00;96054.91;5010803;28;20200;-63
2022/07/18 00:36:04;;;;;;;1999.90;999.90;;;;;;;17.58;100.00;96060.06;5010191;28;20243;-63
2022/07/18 00:38:30;;;;;;;1999.90;999.90;;;;;;;17.52;100.00;96057.06;4995164;28;20223;-62
2022/07/18 00:40:55;;;;;;;1999.90;999.90;;;;;;;17.51;100.00;96060.25;5010064;28;20219;-62
2022/07/18 00:43:20;;;;;;;1999.90;999.90;;;;;;;17.49;100.00;96051.63;5010425;28;20180;-62
2022/07/18 00:45:48;;;;;;;1999.90;999.90;;;;;;;17.42;100.00;96058.09;4994037;28;20196;-62
2022/07/18 00:48:13;;;;;;;1999.90;999.90;;;;;;;17.37;100.00;96047.53;5010180;28;20274;-62
2022/07/18 00:50:40;;;;;;;1999.90;999.90;;;;;;;17.31;100.00;96048.50;5010519;28;20302;-62
2022/07/18 00:53:07;;;;;;;1999.90;999.90;;;;;;;17.27;100.00;96047.78;5010220;28;20188;-63
2022/07/18 00:55:33;;;;;;;1999.90;999.90;;;;;;;17.23;100.00;96038.81;5010208;28;20214;-62
2022/07/18 00:57:59;;;;;;;1999.90;999.90;;;;;;;17.20;100.00;96037.69;5010046;28;20188;-62
2022/07/18 01:03:09;;;;;;;1999.90;999.90;;;;;;;17.09;100.00;96025.34;4995345;28;20215;-61
2022/07/18 01:05:35;;;;;;;1999.90;999.90;;;;;;;17.05;100.00;96030.97;5009813;28;20203;-62
2022/07/18 01:08:01;;;;;;;1999.90;999.90;;;;;;;17.04;100.00;96031.38;5009796;28;20192;-62
2022/07/18 01:10:26;;;;;;;1999.90;999.90;;;;;;;17.02;100.00;96033.78;5009864;28;20204;-62
2022/07/18 01:12:52;;;;;;;1999.90;999.90;;;;;;;17.00;100.00;96025.94;4993482;28;20184;-63
2022/07/18 01:15:18;;;;;;;1999.90;999.90;;;;;;;17.00;100.00;96030.69;5009925;28;20294;-62
2022/07/18 01:17:43;;;;;;;1999.90;999.90;;;;;;;16.98;100.00;96035.84;4993950;28;20195;-63
2022/07/18 01:20:10;;;;;;;1999.90;999.90;;;;;;;16.93;100.00;96019.81;5009609;28;20222;-62
2022/07/18 01:22:35;;;;;;;1999.90;999.90;;;;;;;16.86;100.00;96025.50;5009642;28;20184;-62
2022/07/18 01:25:01;;;;;;;1999.90;999.90;;;;;;;16.76;100.00;96018.22;5009345;28;20191;-62
2022/07/18 01:27:26;;;;;;;1999.90;999.90;;;;;;;16.74;100.00;96017.84;5009946;28;20188;-60
2022/07/18 01:29:53;;;;;;;1999.90;999.90;;;;;;;16.67;100.00;96018.78;5009816;28;20280;-62
2022/07/18 01:32:19;;;;;;;1999.90;999.90;;;;;;;16.65;100.00;96012.94;5009581;28;20286;-61
2022/07/18 01:34:48;;;;;;;1999.90;999.90;;;;;;;16.57;100.00;96010.75;5009289;28;20216;-62
2022/07/18 01:37:15;;;;;;;1999.90;999.90;;;;;;;16.52;100.00;96019.50;5009471;28;20191;-61
2022/07/18 01:39:41;;;;;;;1999.90;999.90;;;;;;;16.53;100.00;96010.06;5009729;28;20188;-62
2022/07/18 01:42:08;;;;;;;1999.90;999.90;;;;;;;16.53;100.00;96010.81;5009961;28;20180;-62
2022/07/18 01:44:35;;;;;;;1999.90;999.90;;;;;;;16.56;100.00;96018.25;5009435;28;20192;-62
2022/07/18 01:47:03;;;;;;;1999.90;999.90;;;;;;;16.49;100.00;96014.88;5009425;28;20192;-62
2022/07/18 01:49:29;;;;;;;1999.90;999.90;;;;;;;16.46;100.00;96015.72;5009440;28;20207;-61
2022/07/18 01:51:55;;;;;;;1999.90;999.90;;;;;;;16.44;100.00;96008.63;5009403;28;20286;-62
2022/07/18 01:54:23;;;;;;;1999.90;999.90;;;;;;;16.40;100.00;96012.66;5009276;28;20656;-62
2022/07/18 01:56:49;;;;;;;1999.90;999.90;;;;;;;16.43;100.00;96020.09;5009255;28;20184;-63
2022/07/18 01:59:14;;;;;;;1999.90;999.90;;;;;;;16.46;100.00;96024.00;4993053;28;20202;-63
2022/07/18 02:01:40;;;;;;;1999.90;999.90;;;;;;;16.46;100.00;96024.00;5009615;28;20195;-63
2022/07/18 02:04:05;;;;;;;1999.90;999.90;;;;;;;16.38;100.00;96010.31;5009234;28;20184;-62
2022/07/18 02:06:31;;;;;;;1999.90;999.90;;;;;;;16.38;100.00;96015.84;5008883;28;20188;-62
2022/07/18 02:08:57;;;;;;;1999.90;999.90;;;;;;;16.33;100.00;96012.78;5009318;28;20203;-63
2022/07/18 02:11:22;;;;;;;1999.90;999.90;;;;;;;16.33;100.00;96010.78;5009700;28;20183;-62
2022/07/18 02:13:48;;;;;;;1999.90;999.90;;;;;;;16.29;100.00;96006.56;5009144;28;20192;-63
2022/07/18 02:16:13;;;;;;;1999.90;999.90;;;;;;;16.24;100.00;96005.09;5009108;28;20192;-62
2022/07/18 02:18:39;;;;;;;1999.90;999.90;;;;;;;16.24;100.00;96004.31;5009060;28;20196;-62
2022/07/18 02:21:05;;;;;;;1999.90;999.90;;;;;;;16.25;100.00;96001.13;4993112;28;20282;-63
2022/07/18 02:23:30;;;;;;;1999.90;999.90;;;;;;;16.23;100.00;95992.50;5009055;28;20210;-62
2022/07/18 02:25:55;;;;;;;1999.90;999.90;;;;;;;16.17;100.00;95990.66;5008878;28;20192;-62
2022/07/18 02:28:21;;;;;;;1999.90;999.90;;;;;;;16.16;100.00;96005.66;5008894;28;20195;-62
2022/07/18 02:30:48;;;;;;;1999.90;999.90;;;;;;;16.08;100.00;95996.75;5008702;28;20226;-64
2022/07/18 02:33:14;;;;;;;1999.90;999.90;;;;;;;16.06;100.00;95987.34;5008924;28;20207;-63
2022/07/18 02:35:39;;;;;;;1999.90;999.90;;;;;;;16.08;100.00;95990.47;5008662;28;20227;-63
2022/07/18 02:38:05;;;;;;;1999.90;999.90;;;;;;;16.03;100.00;95988.97;5011825;28;20192;-62
2022/07/18 02:40:30;;;;;;;1999.90;999.90;;;;;;;15.96;100.00;95983.59;4995612;28;20199;-62
2022/07/18 02:42:55;;;;;;;1999.90;999.90;;;;;;;15.92;100.00;95974.63;5012057;28;20196;-62
2022/07/18 02:45:21;;;;;;;1999.90;999.90;;;;;;;15.88;100.00;95965.66;5012300;28;20192;-62
2022/07/18 02:47:46;;;;;;;1999.90;999.90;;;;;;;15.84;100.00;95959.44;5012291;28;20203;-65
2022/07/18 02:50:12;;;;;;;1999.90;999.90;;;;;;;15.81;100.00;95965.78;5011974;28;20235;-62
2022/07/18 02:52:40;;;;;;;1999.90;999.90;;;;;;;15.78;100.00;95966.63;4995580;28;20188;-61
2022/07/18 02:55:07;;;;;;;1999.90;999.90;;;;;;;15.73;100.00;95967.13;4995694;28;20192;-62
2022/07/18 02:57:32;;;;;;;1999.90;999.90;;;;;;;15.69;100.00;95965.63;4995771;28;20192;-62
2022/07/18 02:59:58;;;;;;;1999.90;999.90;;;;;;;15.66;100.00;95969.25;5011890;28;20206;-62
2022/07/18 03:02:24;;;;;;;1999.90;999.90;;;;;;;15.66;100.00;95978.28;5011634;28;20195;-61
2022/07/18 03:04:49;;;;;;;1999.90;999.90;;;;;;;15.65;100.00;95982.22;5012020;28;20330;-62
2022/07/18 03:07:14;;;;;;;1999.90;999.90;;;;;;;15.59;100.00;95975.66;5011558;28;20195;-62
2022/07/18 03:09:40;;;;;;;1999.90;999.90;;;;;;;15.58;100.00;95970.56;4995858;28;20242;-62
2022/07/18 03:12:05;;;;;;;1999.90;999.90;;;;;;;15.51;100.00;95962.41;5011956;28;20208;-63
2022/07/18 03:14:30;;;;;;;1999.90;999.90;;;;;;;15.53;100.00;95965.53;5011742;28;20214;-62
2022/07/18 03:16:56;;;;;;;1999.90;999.90;;;;;;;15.50;100.00;95958.13;5011388;28;20238;-62
2022/07/18 03:19:21;;;;;;;1999.90;999.90;;;;;;;15.43;100.00;95967.28;5011512;28;20192;-62
2022/07/18 03:21:47;;;;;;;1999.90;999.90;;;;;;;15.31;100.00;95959.63;5011521;28;20195;-63
2022/07/18 03:24:13;;;;;;;1999.90;999.90;;;;;;;15.30;100.00;95958.03;5011875;28;20195;-62
2022/07/18 03:26:39;;;;;;;1999.90;999.90;;;;;;;15.36;100.00;95959.16;5011511;28;20188;-62
2022/07/18 03:29:05;;;;;;;1999.90;999.90;;;;;;;15.38;100.00;95970.53;4994860;28;20215;-62
2022/07/18 03:31:30;;;;;;;1999.90;999.90;;;;;;;15.38;100.00;95978.00;5011741;28;20203;-62
2022/07/18 03:33:56;;;;;;;1999.90;999.90;;;;;;;15.33;100.00;95973.72;5011514;28;20187;-63
2022/07/18 03:36:21;;;;;;;1999.90;999.90;;;;;;;15.33;100.00;95973.72;5011478;28;20200;-63
2022/07/18 03:38:47;;;;;;;1999.90;999.90;;;;;;;15.31;100.00;95981.63;5011365;28;20200;-64
2022/07/18 03:41:12;;;;;;;1999.90;999.90;;;;;;;15.37;100.00;95979.22;5011802;28;20191;-63
2022/07/18 03:43:39;;;;;;;1999.90;999.90;;;;;;;15.37;100.00;95976.47;5011485;28;20234;-63
2022/07/18 03:46:04;;;;;;;1999.90;999.90;;;;;;;15.47;100.00;95980.97;4994909;28;20212;-63
2022/07/18 03:48:30;;;;;;;1999.90;999.90;;;;;;;15.48;100.00;95991.56;5010035;28;20196;-63
2022/07/18 03:50:55;;;;;;;1999.90;999.90;;;;;;;15.50;100.00;95988.41;5011372;28;20283;-64
2022/07/18 03:53:21;;;;;;;1999.90;999.90;;;;;;;15.58;100.00;95998.88;5011115;28;20188;-63
2022/07/18 03:55:46;;;;;;;1999.90;999.90;;;;;;;15.66;100.00;96003.06;5010863;28;20198;-63
2022/07/18 03:58:12;;;;;;;1999.90;999.90;;;;;;;15.83;100.00;96015.72;5011205;28;20203;-63
2022/07/18 04:00:37;;;;;;;1999.90;999.90;;;;;;;15.96;100.00;96022.16;5011112;28;20198;-64
2022/07/18 04:03:03;;;;;;;1999.90;999.90;;;;;;;16.09;100.00;96020.34;4994652;28;20261;-63
2022/07/18 04:05:28;;;;;;;1999.90;999.90;;;;;;;16.25;100.00;96033.44;5011543;28;20202;-62
2022/07/18 04:07:54;;;;;;;1999.90;999.90;;;;;;;16.51;100.00;96029.78;5011119;28;20188;-63
2022/07/18 04:10:19;;;;;;;1999.90;999.90;;;;;;;16.87;100.00;96052.66;5010335;28;20259;-63
2022/07/18 04:12:52;;;;;;;1999.90;999.90;;;;;;;17.20;100.00;96047.97;5011446;28;20180;-64
2022/07/18 04:15:20;;;;;;;1999.90;999.90;;;;;;;17.44;100.00;96063.22;5010615;28;20196;-64
2022/07/18 04:17:45;;;;;;;1999.90;999.90;;;;;;;17.74;100.00;96062.84;5010796;28;20669;-65
2022/07/18 04:20:11;;;;;;;1999.90;999.90;;;;;;;18.34;100.00;96081.41;5011097;28;20188;-63
2022/07/18 04:22:49;;;;;;;1999.90;999.90;;;;;;;18.59;100.00;96082.31;5010508;28;20214;-63
2022/07/18 04:25:15;;;;;;;1999.90;999.90;;;;;;;18.86;100.00;96084.69;5010482;28;20192;-63
2022/07/18 04:27:40;;;;;;;1999.90;999.90;;;;;;;19.08;100.00;96082.84;5010493;28;20192;-63
2022/07/18 04:30:07;;;;;;;1999.90;999.90;;;;;;;19.36;100.00;96084.78;5010293;28;20226;-62
2022/07/18 04:32:32;;;;;;;1999.90;999.90;;;;;;;19.67;100.00;96091.34;5010335;28;20230;-62
2022/07/18 04:34:57;;;;;;;1999.90;999.90;;;;;;;19.79;100.00;96096.06;5010208;28;20242;-63
2022/07/18 04:37:23;;;;;;;1999.90;999.90;;;;;;;20.16;100.00;96092.47;5010189;28;20196;-62
2022/07/18 04:39:48;;;;;;;1999.90;999.90;;;;;;;20.39;100.00;96089.28;5010302;28;20263;-62
2022/07/18 04:42:13;;;;;;;1999.90;999.90;;;;;;;20.51;100.00;96088.47;4993918;28;20211;-63
2022/07/18 04:44:39;;;;;;;1999.90;999.90;;;;;;;20.69;100.00;96096.16;5010152;28;20196;-63
2022/07/18 04:47:04;;;;;;;1999.90;999.90;;;;;;;20.84;98.13;96097.19;5010629;28;20227;-63
2022/07/18 04:49:29;;;;;;;1999.90;999.90;;;;;;;20.98;96.67;96096.72;5010510;28;20215;-63
2022/07/18 04:51:55;;;;;;;1999.90;999.90;;;;;;;21.06;96.27;96092.44;5009924;28;20242;-64
2022/07/18 04:54:20;;;;;;;1999.90;999.90;;;;;;;21.36;93.03;96089.66;5010067;28;20187;-63
2022/07/18 04:56:46;;;;;;;1999.90;999.90;;;;;;;21.74;91.17;96092.94;5010202;28;20251;-63
2022/07/18 04:59:11;;;;;;;1999.90;999.90;;;;;;;21.93;88.07;96088.97;5009934;28;20192;-63
2022/07/18 05:01:36;;;;;;;1999.90;999.90;;;;;;;21.78;88.16;96090.78;5009864;28;20219;-63
2022/07/18 05:04:02;;;;;;;1999.90;999.90;;;;;;;21.91;88.95;96097.00;4993778;28;20211;-64
2022/07/18 05:06:28;;;;;;;1999.90;999.90;;;;;;;22.39;84.89;96096.16;4993407;28;20215;-63
2022/07/18 05:08:53;;;;;;;1999.90;999.90;;;;;;;22.58;83.28;96107.34;5009557;28;20226;-60
2022/07/18 05:11:18;;;;;;;1999.90;999.90;;;;;;;22.34;85.95;96094.00;5009732;28;20204;-61
2022/07/18 05:13:44;;;;;;;1999.90;999.90;;;;;;;22.50;84.42;96097.75;5009834;28;20210;-61
2022/07/18 05:16:09;;;;;;;1999.90;999.90;;;;;;;22.43;84.95;96101.56;5009547;28;20188;-59
2022/07/18 05:18:35;;;;;;;1999.90;999.90;;;;;;;22.71;84.19;96102.38;5010206;28;20192;-65
2022/07/18 05:21:00;;;;;;;1999.90;999.90;;;;;;;22.76;83.15;96101.78;5009501;28;20199;-61
2022/07/18 05:23:25;;;;;;;1999.90;999.90;;;;;;;22.80;82.23;96105.19;5009581;28;20239;-61
2022/07/18 05:25:51;;;;;;;1999.90;999.90;;;;;;;23.03;81.63;96090.59;5009834;28;20184;-62
2022/07/18 05:28:16;;;;;;;1999.90;999.90;;;;;;;23.25;80.69;96103.13;5009710;28;20191;-61
2022/07/18 05:30:42;;;;;;;1999.90;999.90;;;;;;;23.72;76.85;96094.13;5009285;28;20216;-66
2022/07/18 05:33:07;;;;;;;1999.90;999.90;;;;;;;24.22;75.05;96096.06;5009609;28;20186;-66
2022/07/18 05:35:33;;;;;;;1999.90;999.90;;;;;;;24.94;72.27;96096.31;5009511;28;20206;-60
2022/07/18 05:37:58;;;;;;;1999.90;999.90;;;;;;;24.83;71.69;96095.31;4993233;28;20176;-62
2022/07/18 05:40:23;;;;;;;1999.90;999.90;;;;;;;24.91;71.45;96088.88;5009125;28;20288;-64
2022/07/18 05:42:49;;;;;;;1999.90;999.90;;;;;;;25.43;69.07;96095.69;5009946;28;20204;-62
2022/07/18 05:45:15;;;;;;;1999.90;999.90;;;;;;;25.76;68.12;96099.03;4993551;28;20187;-64
2022/07/18 05:47:40;;;;;;;1999.90;999.90;;;;;;;25.82;66.26;96097.06;4992974;28;20254;-62
2022/07/18 05:50:07;;;;;;;1999.90;999.90;;;;;;;26.14;65.33;96096.06;5009543;28;20210;-61
2022/07/18 05:52:32;;;;;;;1999.90;999.90;;;;;;;26.77;61.36;96097.91;5009329;28;20188;-70
2022/07/18 05:54:58;;;;;;;1999.90;999.90;;;;;;;26.64;61.90;96094.72;5008812;28;20187;-65
2022/07/18 05:57:23;;;;;;;1999.90;999.90;;;;;;;27.44;59.85;96097.38;5009502;28;20191;-62
2022/07/18 05:59:49;;;;;;;1999.90;999.90;;;;;;;28.08;56.00;96092.03;5009126;28;20187;-65
2022/07/18 06:02:14;;;;;;;1999.90;999.90;;;;;;;28.23;54.63;96097.50;5009310;28;20196;-66
2022/07/18 06:04:40;;;;;;;1999.90;999.90;;;;;;;28.04;54.79;96091.50;5009276;28;20197;-63
2022/07/18 06:07:05;;;;;;;1999.90;999.90;;;;;;;28.03;54.25;96092.78;5009046;28;20207;-63
2022/07/18 06:09:31;;;;;;;1999.90;999.90;;;;;;;28.74;53.00;96088.06;5008800;28;20219;-60
2022/07/18 06:11:59;;;;;;;1999.90;999.90;;;;;;;29.30;49.71;96086.94;5010460;28;20184;-63
2022/07/18 06:14:26;;;;;;;1999.90;999.90;;;;;;;29.54;48.43;96084.44;5012516;28;20286;-60
2022/07/18 06:16:51;;;;;;;1999.90;999.90;;;;;;;29.35;48.53;96086.22;5012599;28;20184;-59
2022/07/18 06:19:17;;;;;;;1999.90;999.90;;;;;;;29.74;47.93;96075.75;5012033;28;20326;-60
2022/07/18 06:21:42;;;;;;;1999.90;999.90;;;;;;;30.17;46.76;96088.28;5012517;28;20183;-58
2022/07/18 06:24:07;;;;;;;1999.90;999.90;;;;;;;30.56;45.20;96088.97;5012353;28;20227;-59
2022/07/18 06:26:33;;;;;;;1999.90;999.90;;;;;;;30.60;45.60;96083.81;5012426;28;20275;-59
2022/07/18 06:28:58;;;;;;;1999.90;999.90;;;;;;;31.05;44.09;96090.81;5012361;28;20184;-61
2022/07/18 06:31:24;;;;;;;1999.90;999.90;;;;;;;31.01;43.35;96095.97;5012251;28;20214;-60
2022/07/18 06:33:49;;;;;;;1999.90;999.90;;;;;;;30.99;42.99;96092.94;5012057;28;20187;-60
2022/07/18 06:36:14;;;;;;;1999.90;999.90;;;;;;;31.46;40.97;96088.78;4996858;28;20226;-59
2022/07/18 06:38:40;;;;;;;1999.90;999.90;;;;;;;31.71;41.27;96087.59;5012103;28;20188;-60
2022/07/18 06:41:06;;;;;;;1999.90;999.90;;;;;;;32.57;39.97;96086.56;5011804;28;20274;-60
2022/07/18 06:43:31;;;;;;;1999.90;999.90;;;;;;;33.33;37.28;96084.09;5011747;28;20180;-60
2022/07/18 06:45:57;;;;;;;1999.90;999.90;;;;;;;32.22;37.23;96080.97;4995670;28;20180;-61
2022/07/18 06:48:23;;;;;;;1999.90;999.90;;;;;;;33.00;36.64;96073.16;5012266;28;20183;-61
2022/07/18 06:50:49;;;;;;;1999.90;999.90;;;;;;;33.13;35.65;96076.09;5011821;28;20278;-59
2022/07/18 06:53:14;;;;;;;1999.90;999.90;;;;;;;32.97;35.38;96079.91;5011688;28;20191;-59
2022/07/18 06:55:39;;;;;;;1999.90;999.90;;;;;;;32.91;36.22;96084.88;5011928;28;20188;-59
2022/07/18 06:58:05;;;;;;;1999.90;999.90;;;;;;;32.56;35.76;96087.84;5011953;28;20188;-60
2022/07/18 07:00:30;;;;;;;1999.90;999.90;;;;;;;32.46;35.61;96092.34;4995706;28;20203;-58
2022/07/18 07:02:55;;;;;;;1999.90;999.90;;;;;;;32.97;35.73;96091.25;4995700;28;20266;-67
2022/07/18 07:05:21;;;;;;;1999.90;999.90;;;;;;;33.45;33.42;96091.13;5011602;28;20184;-59
2022/07/18 07:07:47;;;;;;;1999.90;999.90;;;;;;;34.90;31.51;96084.47;5011810;28;20202;-66
2022/07/18 07:10:14;;;;;;;1999.90;999.90;;;;;;;35.08;30.48;96083.56;5011431;28;20216;-66
2022/07/18 07:12:51;;;;;;;1999.90;999.90;;;;;;;36.02;29.15;96096.44;5011797;28;20192;-64
2022/07/18 07:15:21;;;;;;;1999.90;999.90;;;;;;;35.96;28.98;96101.50;5011548;28;20191;-68
2022/07/18 07:17:47;;;;;;;1999.90;999.90;;;;;;;36.20;27.86;96098.31;5011575;28;20196;-65
2022/07/18 07:20:13;;;;;;;1999.90;999.90;;;;;;;36.92;27.42;96102.84;5011872;28;20192;-64
2022/07/18 07:22:47;;;;;;;1999.90;999.90;;;;;;;37.50;26.30;96100.09;5011770;28;20238;-65
2022/07/18 07:25:14;;;;;;;1999.90;999.90;;;;;;;37.61;25.81;96105.47;5011292;28;20190;-67
2022/07/18 07:27:40;;;;;;;1999.90;999.90;;;;;;;37.84;25.42;96106.31;4994983;28;20188;-65
2022/07/18 07:30:06;;;;;;;1999.90;999.90;;;;;;;37.52;26.15;96114.56;5011662;28;20211;-63
2022/07/18 07:32:39;;;;;;;1999.90;999.90;;;;;;;37.54;26.54;96114.75;5011285;28;20253;-65
2022/07/18 07:35:06;;;;;;;1999.90;999.90;;;;;;;37.36;25.66;96109.38;5011679;28;20191;-60
2022/07/18 07:37:33;;;;;;;1999.90;999.90;;;;;;;37.44;24.49;96110.16;5011518;28;20326;-63
2022/07/18 07:39:59;;;;;;;1999.90;999.90;;;;;;;37.32;23.93;96118.28;5011459;28;20191;-67
2022/07/18 07:42:25;;;;;;;1999.90;999.90;;;;;;;36.08;25.77;96116.97;5011393;28;20195;-66
2022/07/18 07:44:50;;;;;;;1999.90;999.90;;;;;;;38.05;24.40;96106.94;5011176;28;20192;-68
2022/07/18 07:47:16;;;;;;;1999.90;999.90;;;;;;;37.82;24.37;96111.81;5011244;28;20194;-63
2022/07/18 07:49:41;;;;;;;1999.90;999.90;;;;;;;39.30;23.48;96097.28;4994569;28;20214;-68
2022/07/18 07:52:06;;;;;;;1999.90;999.90;;;;;;;39.57;22.52;96105.41;5011006;28;20188;-65
2022/07/18 07:54:32;;;;;;;1999.90;999.90;;;;;;;38.81;23.25;96102.75;5011502;28;20195;-66
2022/07/18 07:56:57;;;;;;;1999.90;999.90;;;;;;;39.50;22.49;96095.50;5011114;28;20179;-66
2022/07/18 07:59:23;;;;;;;1999.90;999.90;;;;;;;39.13;22.86;96097.16;4994565;28;20220;-66
2022/07/18 08:01:48;;;;;;;1999.90;999.90;;;;;;;38.93;21.77;96095.31;5010960;28;20255;-66
2022/07/18 08:04:13;;;;;;;1999.90;999.90;;;;;;;39.15;21.33;96100.19;5010869;28;20202;-66
2022/07/18 08:06:39;;;;;;;1999.90;999.90;;;;;;;39.03;21.42;96109.75;5010627;28;20230;-68
2022/07/18 08:09:06;;;;;;;1999.90;999.90;;;;;;;38.68;21.29;96094.41;5010797;28;20251;-65
2022/07/18 08:11:31;;;;;;;1999.90;999.90;;;;;;;38.88;20.79;96098.34;5011132;28;20184;-65
2022/07/18 08:13:57;;;;;;;1999.90;999.90;;;;;;;38.04;21.72;96105.38;5010789;28;20215;-66
2022/07/18 08:16:22;;;;;;;1999.90;999.90;;;;;;;37.47;22.08;96106.91;5011013;28;20183;-64
2022/07/18 08:18:48;;;;;;;1999.90;999.90;;;;;;;37.81;22.24;96103.81;5010725;28;20279;-64
2022/07/18 08:21:14;;;;;;;1999.90;999.90;;;;;;;37.95;21.96;96103.09;5010602;28;20191;-63
2022/07/18 08:23:39;;;;;;;1999.90;999.90;;;;;;;38.30;21.67;96095.69;5010784;28;20198;-64
2022/07/18 08:26:05;;;;;;;1999.90;999.90;;;;;;;38.15;21.28;96093.63;4994080;28;20230;-65
2022/07/18 08:28:30;;;;;;;1999.90;999.90;;;;;;;38.08;21.29;96097.22;4994480;28;20279;-64
2022/07/18 08:30:55;;;;;;;1999.90;999.90;;;;;;;38.82;21.44;96095.69;5010397;28;20217;-66
2022/07/18 08:33:21;;;;;;;1999.90;999.90;;;;;;;39.24;20.76;96091.03;5010049;28;20224;-70
2022/07/18 08:35:46;;;;;;;1999.90;999.90;;;;;;;38.58;20.68;96087.72;5009783;28;20198;-64
2022/07/18 08:38:12;;;;;;;1999.90;999.90;;;;;;;39.31;20.69;96089.47;5009870;28;20298;-65
2022/07/18 08:40:38;;;;;;;1999.90;999.90;;;;;;;38.93;19.66;96098.16;5009996;28;20172;-64
2022/07/18 08:43:04;;;;;;;1999.90;999.90;;;;;;;39.48;20.04;96088.84;5010499;28;20184;-63
2022/07/18 08:45:30;;;;;;;1999.90;999.90;;;;;;;38.43;20.66;96087.72;5010603;28;20192;-66
2022/07/18 08:47:55;;;;;;;1999.90;999.90;;;;;;;38.38;21.17;96085.81;5010327;28;20211;-65
2022/07/18 08:50:21;;;;;;;1999.90;999.90;;;;;;;38.08;20.90;96097.22;5010499;28;20212;-65
2022/07/18 08:52:47;;;;;;;1999.90;999.90;;;;;;;38.32;20.11;96088.09;5010324;28;20192;-64
2022/07/18 08:55:14;;;;;;;1999.90;999.90;;;;;;;38.40;20.23;96085.22;5010161;28;20188;-68
2022/07/18 08:57:39;;;;;;;1999.90;999.90;;;;;;;37.45;21.33;96098.19;4994191;28;20190;-65
2022/07/18 09:00:07;;;;;;;1999.90;999.90;;;;;;;37.77;20.96;96087.09;5009944;28;20188;-71
2022/07/18 09:02:33;;;;;;;1999.90;999.90;;;;;;;39.37;19.69;96080.69;5010016;28;20187;-69
2022/07/18 09:05:02;;;;;;;1999.90;999.90;;;;;;;39.06;19.20;96086.50;4993122;28;20219;-67
2022/07/18 09:07:30;;;;;;;1999.90;999.90;;;;;;;38.75;19.86;96085.03;5010034;28;20187;-65
2022/07/18 09:09:58;;;;;;;1999.90;999.90;;;;;;;37.88;19.84;96088.81;5010350;28;20215;-64
2022/07/18 09:12:28;;;;;;;1999.90;999.90;;;;;;;36.97;20.89;96092.59;5009853;28;20183;-64
2022/07/18 09:14:54;;;;;;;1999.90;999.90;;;;;;;37.86;19.81;96086.50;5009710;28;20208;-64
2022/07/18 09:17:22;;;;;;;1999.90;999.90;;;;;;;38.40;20.30;96076.66;5009834;28;20188;-66
2022/07/18 09:20:00;;;;;;;1999.90;999.90;;;;;;;39.17;19.26;96074.66;4993683;28;20184;-64
2022/07/18 09:22:28;;;;;;;1999.90;999.90;;;;;;;37.94;20.34;96081.56;4993299;28;20184;-65
2022/07/18 09:25:03;;;;;;;1999.90;999.90;;;;;;;37.76;19.00;96079.09;5009404;28;20274;-63
2022/07/18 09:27:33;;;;;;;1999.90;999.90;;;;;;;38.93;18.32;96071.69;5009940;28;20195;-64
2022/07/18 09:30:18;;;;;;;1999.90;999.90;;;;;;;38.68;18.20;96073.63;4992900;28;20219;-63
2022/07/18 09:32:48;;;;;;;1999.90;999.90;;;;;;;37.65;18.69;96077.34;4993349;28;20196;-66
2022/07/18 09:35:16;;;;;;;1999.90;999.90;;;;;;;37.00;18.75;96075.16;5009484;28;20188;-61
2022/07/18 09:38:05;;;;;;;1999.90;999.90;;;;;;;37.73;18.36;96071.66;5010047;28;20179;-63
2022/07/18 09:40:36;;;;;;;1999.90;999.90;;;;;;;37.53;18.45;96070.44;4992787;28;20199;-64
2022/07/18 09:43:08;;;;;;;1999.90;999.90;;;;;;;37.27;18.56;96070.75;5009648;28;20282;-64
2022/07/18 09:45:35;;;;;;;1999.90;999.90;;;;;;;37.60;18.36;96075.41;5009493;28;20198;-63
2022/07/18 09:48:05;;;;;;;1999.90;999.90;;;;;;;36.95;18.97;96073.22;4993138;28;20191;-63
2022/07/18 09:50:37;;;;;;;1999.90;999.90;;;;;;;36.86;18.95;96079.44;5009610;28;20216;-64
2022/07/18 09:53:05;;;;;;;1999.90;999.90;;;;;;;37.36;18.51;96080.84;5009806;28;20282;-64
2022/07/18 09:55:32;;;;;;;1999.90;999.90;;;;;;;37.92;18.13;96078.53;5009581;28;20184;-61
2022/07/18 09:58:05;;;;;;;1999.90;999.90;;;;;;;37.29;18.83;96078.72;5009743;28;20251;-63
2022/07/18 10:00:34;;;;;;;1999.90;999.90;;;;;;;36.68;18.84;96083.31;4993059;28;20195;-61
2022/07/18 10:03:01;;;;;;;1999.90;999.90;;;;;;;37.76;18.71;96088.38;5009392;28;20278;-62
2022/07/18 10:05:31;;;;;;;1999.90;999.90;;;;;;;37.07;19.27;96082.22;4992739;28;20194;-66
2022/07/18 10:07:59;;;;;;;1999.90;999.90;;;;;;;37.41;18.35;96083.53;5009278;28;20187;-67
2022/07/18 10:10:27;;;;;;;1999.90;999.90;;;;;;;37.07;19.11;96071.56;5009363;28;20242;-63
2022/07/18 10:12:55;;;;;;;1999.90;999.90;;;;;;;36.48;19.61;96076.34;4993379;28;20176;-65
2022/07/18 10:15:23;;;;;;;1999.90;999.90;;;;;;;36.79;19.27;96065.94;5008909;28;20227;-65
2022/07/18 10:17:49;;;;;;;1999.90;999.90;;;;;;;36.80;19.85;96072.38;5008999;28;20195;-66
2022/07/18 10:20:14;;;;;;;1999.90;999.90;;;;;;;36.76;19.15;96072.75;5008815;28;20191;-67
2022/07/18 10:22:42;;;;;;;1999.90;999.90;;;;;;;37.27;19.36;96065.03;4992349;28;20191;-66
2022/07/18 10:25:09;;;;;;;1999.90;999.90;;;;;;;38.36;18.16;96059.16;5008805;28;20196;-66
2022/07/18 10:27:48;;;;;;;1999.90;999.90;;;;;;;38.70;18.06;96060.28;5009310;28;20180;-69
2022/07/18 10:30:14;;;;;;;1999.90;999.90;;;;;;;39.08;17.89;96055.22;4992563;28;20295;-67
2022/07/18 10:32:40;;;;;;;1999.90;999.90;;;;;;;38.28;18.41;96062.03;5008518;28;20192;-65
2022/07/18 10:35:07;;;;;;;1999.90;999.90;;;;;;;36.64;19.27;96062.97;4992447;28;20188;-64
2022/07/18 10:37:36;;;;;;;1999.90;999.90;;;;;;;35.86;20.22;96060.59;5008816;28;20230;-66
2022/07/18 10:40:21;;;;;;;1999.90;999.90;;;;;;;35.93;20.51;96068.44;5008872;28;20312;-65
2022/07/18 10:43:25;;;;;;;1999.90;999.90;;;;;;;35.46;20.75;96073.44;4992633;28;20193;-62
2022/07/18 10:45:50;;;;;;;1999.90;999.90;;;;;;;36.62;19.97;96071.28;4992354;28;20199;-63
2022/07/18 10:48:37;;;;;;;1999.90;999.90;;;;;;;36.25;19.18;96058.34;5008793;28;20176;-66
2022/07/18 10:51:07;;;;;;;1999.90;999.90;;;;;;;36.26;19.75;96059.06;5008406;28;20219;-64
2022/07/18 10:54:01;;;;;;;1999.90;999.90;;;;;;;36.27;20.09;96066.31;5008399;28;20208;-66